Portada
METAR-TAF:

Aeropuertos :

Vitória, Espírito Santo, Brasil

latitud: 20-16S, longitud: 040-17W, altitud: 4 m

Observación

El informe se hizo hace 54 minutos, a las 09:00 UTC
Viento 3 kt del oeste-noroeste
Temperatura 16°C
Humedad 94%
Presión 1020 hPa
Visibilidad 10 km o más
Escasas nubes a una altura de 2500 ft

METAR: SBVT 280900Z 29003KT 9999 FEW025 16/15 Q1020

Hora: 06:54 (09:54 UTC)

Pronóstico

El informe se hizo hace 5 horas y 54 minutos, a las 04:00 UTC
Pronóstico válido del 28 a las 06 UTC al 29 a las 06 UTC
Viento 8 kt del sur-suroeste
Visibilidad: 8000 m
Nubes dispersas a una altura de 3000 ft
Evolucionando progresivamente
del 28 a las 13 UTC al 28 a las 15 UTC
Viento 8 kt del sur-sureste
Evolucionando progresivamente
del 28 a las 22 UTC al 28 a las 24 UTC
Viento 6 kt del oeste-noroeste

TAF: SBVT 280400Z 2806/2906 21008KT 8000 SCT030 TN17/2806Z TX27/2816Z BECMG 2813/2815 16008KT BECMG 2822/2824 30006KT RMK PEA

METAR-TAF

Observaciones y pronósticos meteorológicos de más de 4000 aeropuertos (mensajes METAR y TAF).

Los puntos amarillos y rojos representan las estaciones disponibles.

Ponga el ratón en el punto deseado para ver el nombre de la estación.

Haga clic para ver las observaciones y los pronósticos meteorológicos.

Para cambiar el mapa : haga clic en los botones verdes con una cruz de color negro para hacer un zoom, en el botón verde con un guión para alejar o en las flechas verdes para mapas adyacentes.


METAR-TAF: